Overcast Current Weather (METAR) For Innsbruck - Kranebitten Airport

All times on the weather descriptions are local

Observed at 00:50 - (16 mins ago)

Overcast

9°C

Overcast
Clouds: Overcast at 2,400ft
Wind: 080° at 05 knots, varying from 030° to 120
Visibility: Greater than 10km
QNH: 1008
Dew Point: 5°C
Runway in Use: Runway 08

Sunrise Today: 06:16
Sunset Today: 20:10

Forecast Weather (TAF) For Innsbruck - Kranebitten Airport

Issued at 02:00 - (10 days 0 hrs ago)


Runway in Use: Unable to determine, wind is clam

Forecast valid until 02:00 on Wednesday

METAR/TAF RAW METAR / TAF

LOWI 192250Z AUTO 08005KT 030V120 9999 OVC024 09/05 Q1008

Weather Widget

Put weather from any of our airports on your website with our weather widget.

Find Another Search

Airport Search


Please Wait Please Wait - Loading
Close
Close

Login

Username:

Password:

Remember Me:

Remember me on this computer

Forgotten your password? Get a reset password sent to your registered e-mail address

Close

User Private Message

Subject:

Message: